Date,TemperatureHighF,TemperatureAvgF,TemperatureLowF,DewpointHighF,DewpointAvgF,DewpointLowF,HumidityHigh,HumidityAvg,HumidityLow,PressureMaxIn,PressureMinIn,WindSpeedMaxMPH,WindSpeedAvgMPH,GustSpeedMaxMPH,PrecipitationSumIn
2013-6-1,86,76,68,56,36,23,54,26,11,0.00,40.00,16,8,26,0.00
2013-6-2,76,72,62,53,35,18,68,30,13,0.00,40.00,10,6,17,0.00
2013-6-3,71,67,63,52,34,9,64,32,10,0.00,40.00,9,5,16,0.00
2013-6-4,71,66,62,50,22,-17,63,25,3,0.00,40.00,9,6,16,0.00
2013-6-5,75,69,64,53,23,-6,58,23,5,0.00,40.00,9,6,15,0.00
2013-6-6,75,70,64,52,32,5,54,27,8,0.00,40.00,9,6,17,0.00
2013-6-7,87,78,70,53,27,4,45,18,6,0.00,40.00,9,6,17,0.00
2013-6-8,84,78,72,53,33,14,44,23,10,0.00,40.00,10,5,16,0.00
2013-6-9,80,74,70,48,18,-8,40,16,4,0.00,40.00,14,7,22,0.00
2013-6-10,71,68,61,48,34,13,61,31,12,0.00,40.00,12,9,23,0.00
2013-6-11,81,74,65,52,26,7,45,18,7,0.00,40.00,10,5,16,0.00
2013-6-12,77,71,65,54,38,9,60,32,13,0.00,40.00,10,6,16,0.00
2013-6-13,76,70,63,50,31,0,62,28,7,0.00,40.00,13,9,20,0.00
2013-6-14,75,70,63,46,21,-11,54,20,4,0.00,40.00,12,7,17,0.00
2013-6-15,71,68,64,43,15,-37,46,20,1,0.00,40.00,13,8,21,0.00
2013-6-16,74,68,62,47,16,-27,56,20,2,0.00,40.00,11,7,19,0.00
2013-6-17,75,69,64,44,31,17,45,25,14,0.00,40.00,12,8,19,0.00
2013-6-18,73,68,61,49,31,15,58,27,14,0.00,40.00,14,11,22,0.00
2013-6-19,71,66,60,44,26,3,52,25,9,0.00,40.00,13,10,23,0.00
2013-6-20,73,64,58,39,25,5,40,24,10,0.00,40.00,12,10,19,0.00
2013-6-21,71,68,65,44,39,30,43,36,22,0.00,40.00,12,11,22,0.00
2013-6-22,73,67,61,47,36,20,55,33,20,0.00,40.00,12,9,18,0.00
2013-6-23,67,62,58,49,36,26,68,39,24,0.00,40.00,14,10,23,0.00
2013-6-24,64,59,52,51,40,22,94,53,24,0.00,40.00,19,12,27,0.00
2013-6-25,73,63,54,55,49,42,85,63,45,0.00,40.00,13,9,21,0.00
2013-6-26,81,74,66,53,49,44,56,42,33,0.00,40.00,9,6,17,0.00
2013-6-27,83,76,71,51,47,37,49,36,25,0.00,40.00,10,6,18,0.00
2013-6-28,86,80,72,46,40,27,37,24,15,0.00,40.00,15,9,21,0.00
2013-6-29,91,85,78,45,35,20,26,17,10,0.00,40.00,11,8,18,0.00
2013-6-30,93,87,80,51,40,25,34,20,10,0.00,40.00,11,6,18,0.00